sensor_id;sensor_type;location;lat;lon;timestamp;P1;durP1;ratioP1;P2;durP2;ratioP2
3627;SDS011;1830;49.000;12.074;2022-07-01T00:00:03;11.77;;;9.00;;
3627;SDS011;1830;49.000;12.074;2022-07-01T00:02:32;15.40;;;8.80;;
3627;SDS011;1830;49.000;12.074;2022-07-01T00:04:59;21.37;;;9.97;;
3627;SDS011;1830;49.000;12.074;2022-07-01T00:07:26;13.70;;;9.83;;
3627;SDS011;1830;49.000;12.074;2022-07-01T00:09:52;12.60;;;9.50;;
3627;SDS011;1830;49.000;12.074;2022-07-01T00:12:19;16.23;;;9.00;;
3627;SDS011;1830;49.000;12.074;2022-07-01T00:14:46;18.33;;;9.33;;
3627;SDS011;1830;49.000;12.074;2022-07-01T00:17:13;13.10;;;9.00;;
3627;SDS011;1830;49.000;12.074;2022-07-01T00:19:41;12.43;;;8.23;;
3627;SDS011;1830;49.000;12.074;2022-07-01T00:22:08;15.73;;;9.03;;
3627;SDS011;1830;49.000;12.074;2022-07-01T00:24:34;12.10;;;8.13;;
3627;SDS011;1830;49.000;12.074;2022-07-01T00:27:03;14.23;;;8.23;;
3627;SDS011;1830;49.000;12.074;2022-07-01T00:29:30;14.60;;;8.07;;
3627;SDS011;1830;49.000;12.074;2022-07-01T00:31:58;17.83;;;8.77;;
3627;SDS011;1830;49.000;12.074;2022-07-01T00:34:25;15.73;;;8.23;;
3627;SDS011;1830;49.000;12.074;2022-07-01T00:36:53;11.90;;;7.03;;
3627;SDS011;1830;49.000;12.074;2022-07-01T00:39:20;10.47;;;7.20;;
3627;SDS011;1830;49.000;12.074;2022-07-01T00:41:47;14.10;;;6.80;;
3627;SDS011;1830;49.000;12.074;2022-07-01T00:44:17;15.60;;;7.40;;
3627;SDS011;1830;49.000;12.074;2022-07-01T00:46:44;12.50;;;7.03;;
3627;SDS011;1830;49.000;12.074;2022-07-01T00:49:11;10.93;;;6.60;;
3627;SDS011;1830;49.000;12.074;2022-07-01T00:51:38;15.83;;;6.70;;
3627;SDS011;1830;49.000;12.074;2022-07-01T00:54:06;17.67;;;7.47;;
3627;SDS011;1830;49.000;12.074;2022-07-01T00:56:33;19.83;;;5.57;;
3627;SDS011;1830;49.000;12.074;2022-07-01T00:59:01;15.53;;;5.30;;
3627;SDS011;1830;49.000;12.074;2022-07-01T01:01:28;6.63;;;4.67;;
3627;SDS011;1830;49.000;12.074;2022-07-01T01:03:55;10.27;;;4.90;;
3627;SDS011;1830;49.000;12.074;2022-07-01T01:06:22;7.70;;;4.43;;
3627;SDS011;1830;49.000;12.074;2022-07-01T01:08:49;12.93;;;5.03;;
3627;SDS011;1830;49.000;12.074;2022-07-01T01:11:17;11.93;;;4.87;;
3627;SDS011;1830;49.000;12.074;2022-07-01T01:13:45;4.73;;;3.83;;
3627;SDS011;1830;49.000;12.074;2022-07-01T01:16:16;7.07;;;4.50;;
3627;SDS011;1830;49.000;12.074;2022-07-01T01:18:43;15.00;;;4.37;;
3627;SDS011;1830;49.000;12.074;2022-07-01T01:21:12;6.30;;;4.00;;
3627;SDS011;1830;49.000;12.074;2022-07-01T01:23:38;8.03;;;3.90;;
3627;SDS011;1830;49.000;12.074;2022-07-01T01:26:14;7.20;;;4.67;;
3627;SDS011;1830;49.000;12.074;2022-07-01T01:28:41;7.00;;;3.53;;
3627;SDS011;1830;49.000;12.074;2022-07-01T01:31:09;8.77;;;4.10;;
3627;SDS011;1830;49.000;12.074;2022-07-01T01:33:36;10.97;;;4.47;;
3627;SDS011;1830;49.000;12.074;2022-07-01T01:36:03;10.67;;;4.10;;
3627;SDS011;1830;49.000;12.074;2022-07-01T01:38:33;7.33;;;4.20;;
3627;SDS011;1830;49.000;12.074;2022-07-01T01:41:00;10.03;;;3.73;;
3627;SDS011;1830;49.000;12.074;2022-07-01T01:43:27;5.70;;;3.23;;
3627;SDS011;1830;49.000;12.074;2022-07-01T01:45:54;5.57;;;3.50;;
3627;SDS011;1830;49.000;12.074;2022-07-01T01:48:21;4.77;;;3.60;;
3627;SDS011;1830;49.000;12.074;2022-07-01T01:50:48;5.77;;;3.60;;
3627;SDS011;1830;49.000;12.074;2022-07-01T01:53:15;4.80;;;3.67;;
3627;SDS011;1830;49.000;12.074;2022-07-01T01:55:43;7.30;;;4.07;;
3627;SDS011;1830;49.000;12.074;2022-07-01T01:58:10;6.13;;;3.53;;
3627;SDS011;1830;49.000;12.074;2022-07-01T02:00:37;19.50;;;5.47;;
3627;SDS011;1830;49.000;12.074;2022-07-01T02:03:04;6.20;;;3.83;;
3627;SDS011;1830;49.000;12.074;2022-07-01T02:05:31;6.33;;;3.43;;
3627;SDS011;1830;49.000;12.074;2022-07-01T02:07:58;10.10;;;4.27;;
3627;SDS011;1830;49.000;12.074;2022-07-01T02:10:25;10.67;;;3.70;;
3627;SDS011;1830;49.000;12.074;2022-07-01T02:12:53;4.70;;;3.70;;
3627;SDS011;1830;49.000;12.074;2022-07-01T02:15:20;11.93;;;3.80;;
3627;SDS011;1830;49.000;12.074;2022-07-01T02:17:47;6.43;;;3.77;;
3627;SDS011;1830;49.000;12.074;2022-07-01T02:20:14;11.53;;;3.80;;
3627;SDS011;1830;49.000;12.074;2022-07-01T02:22:41;7.00;;;3.30;;
3627;SDS011;1830;49.000;12.074;2022-07-01T02:25:08;5.70;;;3.73;;
3627;SDS011;1830;49.000;12.074;2022-07-01T02:27:35;9.80;;;4.40;;
3627;SDS011;1830;49.000;12.074;2022-07-01T02:30:04;5.27;;;3.77;;
3627;SDS011;1830;49.000;12.074;2022-07-01T02:32:32;5.20;;;3.70;;
3627;SDS011;1830;49.000;12.074;2022-07-01T02:34:59;11.00;;;4.07;;
3627;SDS011;1830;49.000;12.074;2022-07-01T02:37:26;5.73;;;3.80;;
3627;SDS011;1830;49.000;12.074;2022-07-01T02:39:53;9.73;;;4.33;;
3627;SDS011;1830;49.000;12.074;2022-07-01T02:42:20;6.27;;;4.27;;
3627;SDS011;1830;49.000;12.074;2022-07-01T02:44:51;15.70;;;4.40;;
3627;SDS011;1830;49.000;12.074;2022-07-01T02:47:19;13.00;;;5.30;;
3627;SDS011;1830;49.000;12.074;2022-07-01T02:49:47;9.33;;;3.90;;
3627;SDS011;1830;49.000;12.074;2022-07-01T02:52:13;6.67;;;3.97;;
3627;SDS011;1830;49.000;12.074;2022-07-01T02:54:41;4.47;;;3.43;;
3627;SDS011;1830;49.000;12.074;2022-07-01T02:57:08;7.60;;;4.37;;
3627;SDS011;1830;49.000;12.074;2022-07-01T02:59:35;5.50;;;3.47;;
3627;SDS011;1830;49.000;12.074;2022-07-01T03:02:02;9.33;;;5.30;;
3627;SDS011;1830;49.000;12.074;2022-07-01T03:04:31;6.27;;;4.80;;
3627;SDS011;1830;49.000;12.074;2022-07-01T03:06:58;5.60;;;3.90;;
3627;SDS011;1830;49.000;12.074;2022-07-01T03:09:24;5.10;;;3.67;;
3627;SDS011;1830;49.000;12.074;2022-07-01T03:11:51;4.80;;;4.00;;
3627;SDS011;1830;49.000;12.074;2022-07-01T03:14:18;7.93;;;4.03;;
3627;SDS011;1830;49.000;12.074;2022-07-01T03:16:45;8.00;;;4.47;;
3627;SDS011;1830;49.000;12.074;2022-07-01T03:19:13;6.67;;;4.50;;
3627;SDS011;1830;49.000;12.074;2022-07-01T03:21:41;7.33;;;4.30;;
3627;SDS011;1830;49.000;12.074;2022-07-01T03:24:08;3.83;;;3.27;;
3627;SDS011;1830;49.000;12.074;2022-07-01T03:26:35;4.70;;;4.00;;
3627;SDS011;1830;49.000;12.074;2022-07-01T03:29:02;5.13;;;3.83;;
3627;SDS011;1830;49.000;12.074;2022-07-01T03:31:28;11.80;;;3.53;;
3627;SDS011;1830;49.000;12.074;2022-07-01T03:33:56;5.20;;;3.87;;
3627;SDS011;1830;49.000;12.074;2022-07-01T03:36:23;5.77;;;4.07;;
3627;SDS011;1830;49.000;12.074;2022-07-01T03:38:51;8.27;;;4.10;;
3627;SDS011;1830;49.000;12.074;2022-07-01T03:41:18;4.40;;;3.40;;
3627;SDS011;1830;49.000;12.074;2022-07-01T03:43:44;5.13;;;3.83;;
3627;SDS011;1830;49.000;12.074;2022-07-01T03:46:11;6.43;;;3.20;;
3627;SDS011;1830;49.000;12.074;2022-07-01T03:48:38;5.63;;;3.87;;
3627;SDS011;1830;49.000;12.074;2022-07-01T03:51:05;4.27;;;3.73;;
3627;SDS011;1830;49.000;12.074;2022-07-01T03:53:33;12.90;;;3.87;;
3627;SDS011;1830;49.000;12.074;2022-07-01T03:56:19;4.37;;;3.53;;
3627;SDS011;1830;49.000;12.074;2022-07-01T03:58:46;7.43;;;3.23;;
3627;SDS011;1830;49.000;12.074;2022-07-01T04:01:12;3.97;;;3.00;;
3627;SDS011;1830;49.000;12.074;2022-07-01T04:03:39;3.80;;;2.70;;
3627;SDS011;1830;49.000;12.074;2022-07-01T04:06:06;10.27;;;3.40;;
3627;SDS011;1830;49.000;12.074;2022-07-01T04:08:34;11.67;;;3.20;;
3627;SDS011;1830;49.000;12.074;2022-07-01T04:11:01;5.80;;;3.40;;
3627;SDS011;1830;49.000;12.074;2022-07-01T04:13:29;3.47;;;2.83;;
3627;SDS011;1830;49.000;12.074;2022-07-01T04:15:57;3.20;;;2.90;;
3627;SDS011;1830;49.000;12.074;2022-07-01T04:18:24;3.53;;;2.83;;
3627;SDS011;1830;49.000;12.074;2022-07-01T04:20:51;5.30;;;3.60;;
3627;SDS011;1830;49.000;12.074;2022-07-01T04:23:36;3.47;;;2.97;;
3627;SDS011;1830;49.000;12.074;2022-07-01T04:26:03;5.33;;;3.00;;
3627;SDS011;1830;49.000;12.074;2022-07-01T04:28:31;2.87;;;2.50;;
3627;SDS011;1830;49.000;12.074;2022-07-01T04:30:58;5.20;;;2.80;;
3627;SDS011;1830;49.000;12.074;2022-07-01T04:33:25;8.33;;;3.30;;
3627;SDS011;1830;49.000;12.074;2022-07-01T04:35:52;3.00;;;2.70;;
3627;SDS011;1830;49.000;12.074;2022-07-01T04:38:19;2.70;;;2.50;;
3627;SDS011;1830;49.000;12.074;2022-07-01T04:40:46;3.03;;;2.50;;
3627;SDS011;1830;49.000;12.074;2022-07-01T04:43:27;4.53;;;3.07;;
3627;SDS011;1830;49.000;12.074;2022-07-01T04:45:55;3.70;;;2.87;;
3627;SDS011;1830;49.000;12.074;2022-07-01T04:48:22;3.20;;;2.43;;
3627;SDS011;1830;49.000;12.074;2022-07-01T04:50:49;3.63;;;2.60;;
3627;SDS011;1830;49.000;12.074;2022-07-01T04:53:16;3.97;;;2.73;;
3627;SDS011;1830;49.000;12.074;2022-07-01T04:55:43;3.90;;;2.53;;
3627;SDS011;1830;49.000;12.074;2022-07-01T04:58:09;7.13;;;3.43;;
3627;SDS011;1830;49.000;12.074;2022-07-01T05:00:36;8.70;;;3.10;;
3627;SDS011;1830;49.000;12.074;2022-07-01T05:03:04;6.27;;;2.80;;
3627;SDS011;1830;49.000;12.074;2022-07-01T05:05:31;4.20;;;3.10;;
3627;SDS011;1830;49.000;12.074;2022-07-01T05:07:58;4.87;;;2.50;;
3627;SDS011;1830;49.000;12.074;2022-07-01T05:10:24;3.30;;;3.00;;
3627;SDS011;1830;49.000;12.074;2022-07-01T05:12:53;6.67;;;3.03;;
3627;SDS011;1830;49.000;12.074;2022-07-01T05:15:20;4.40;;;3.00;;
3627;SDS011;1830;49.000;12.074;2022-07-01T05:17:47;4.70;;;2.57;;
3627;SDS011;1830;49.000;12.074;2022-07-01T05:20:32;4.50;;;2.90;;
3627;SDS011;1830;49.000;12.074;2022-07-01T05:23:17;6.63;;;2.87;;
3627;SDS011;1830;49.000;12.074;2022-07-01T05:25:43;3.40;;;2.77;;
3627;SDS011;1830;49.000;12.074;2022-07-01T05:28:10;5.17;;;2.80;;
3627;SDS011;1830;49.000;12.074;2022-07-01T05:30:37;7.37;;;2.87;;
3627;SDS011;1830;49.000;12.074;2022-07-01T05:33:04;4.93;;;2.30;;
3627;SDS011;1830;49.000;12.074;2022-07-01T05:35:32;3.93;;;3.20;;
3627;SDS011;1830;49.000;12.074;2022-07-01T05:37:59;11.50;;;3.07;;
3627;SDS011;1830;49.000;12.074;2022-07-01T05:40:26;2.93;;;2.60;;
3627;SDS011;1830;49.000;12.074;2022-07-01T05:42:53;4.23;;;2.77;;
3627;SDS011;1830;49.000;12.074;2022-07-01T05:45:20;6.53;;;2.67;;
3627;SDS011;1830;49.000;12.074;2022-07-01T05:47:47;3.70;;;2.90;;
3627;SDS011;1830;49.000;12.074;2022-07-01T05:50:14;8.50;;;3.00;;
3627;SDS011;1830;49.000;12.074;2022-07-01T05:52:43;6.57;;;2.90;;
3627;SDS011;1830;49.000;12.074;2022-07-01T05:55:11;4.47;;;2.77;;
3627;SDS011;1830;49.000;12.074;2022-07-01T05:57:38;6.73;;;3.20;;
3627;SDS011;1830;49.000;12.074;2022-07-01T06:00:05;4.17;;;2.47;;
3627;SDS011;1830;49.000;12.074;2022-07-01T06:02:34;13.47;;;2.70;;
3627;SDS011;1830;49.000;12.074;2022-07-01T06:05:01;3.60;;;2.80;;
3627;SDS011;1830;49.000;12.074;2022-07-01T06:07:28;2.63;;;2.40;;
3627;SDS011;1830;49.000;12.074;2022-07-01T06:09:56;5.13;;;3.00;;
3627;SDS011;1830;49.000;12.074;2022-07-01T06:12:23;5.40;;;3.20;;
3627;SDS011;1830;49.000;12.074;2022-07-01T06:14:50;4.53;;;2.90;;
3627;SDS011;1830;49.000;12.074;2022-07-01T06:17:17;7.43;;;3.20;;
3627;SDS011;1830;49.000;12.074;2022-07-01T06:19:44;4.90;;;2.50;;
3627;SDS011;1830;49.000;12.074;2022-07-01T06:22:10;8.70;;;2.43;;
3627;SDS011;1830;49.000;12.074;2022-07-01T06:24:41;3.60;;;2.67;;
3627;SDS011;1830;49.000;12.074;2022-07-01T06:27:11;3.70;;;2.63;;
3627;SDS011;1830;49.000;12.074;2022-07-01T06:29:38;4.00;;;2.87;;
3627;SDS011;1830;49.000;12.074;2022-07-01T06:32:05;11.43;;;2.80;;
3627;SDS011;1830;49.000;12.074;2022-07-01T06:34:33;4.20;;;2.40;;
3627;SDS011;1830;49.000;12.074;2022-07-01T06:37:00;2.70;;;2.47;;
3627;SDS011;1830;49.000;12.074;2022-07-01T06:39:28;9.30;;;3.10;;
3627;SDS011;1830;49.000;12.074;2022-07-01T06:41:56;3.50;;;3.20;;
3627;SDS011;1830;49.000;12.074;2022-07-01T06:44:24;10.60;;;2.90;;
3627;SDS011;1830;49.000;12.074;2022-07-01T06:46:51;4.83;;;3.00;;
3627;SDS011;1830;49.000;12.074;2022-07-01T06:49:18;3.77;;;2.50;;
3627;SDS011;1830;49.000;12.074;2022-07-01T06:51:45;5.93;;;2.83;;
3627;SDS011;1830;49.000;12.074;2022-07-01T06:54:11;3.43;;;2.70;;
3627;SDS011;1830;49.000;12.074;2022-07-01T06:56:38;2.97;;;2.67;;
3627;SDS011;1830;49.000;12.074;2022-07-01T06:59:05;9.13;;;2.90;;
3627;SDS011;1830;49.000;12.074;2022-07-01T07:01:33;3.87;;;2.80;;
3627;SDS011;1830;49.000;12.074;2022-07-01T07:04:00;4.03;;;2.70;;
3627;SDS011;1830;49.000;12.074;2022-07-01T07:06:27;4.50;;;2.60;;
3627;SDS011;1830;49.000;12.074;2022-07-01T07:08:54;3.30;;;2.80;;
3627;SDS011;1830;49.000;12.074;2022-07-01T07:11:21;3.40;;;2.60;;
3627;SDS011;1830;49.000;12.074;2022-07-01T07:13:48;3.77;;;2.60;;
3627;SDS011;1830;49.000;12.074;2022-07-01T07:16:15;11.00;;;3.07;;
3627;SDS011;1830;49.000;12.074;2022-07-01T07:18:47;5.20;;;2.93;;
3627;SDS011;1830;49.000;12.074;2022-07-01T07:21:14;2.80;;;2.53;;
3627;SDS011;1830;49.000;12.074;2022-07-01T07:23:40;3.13;;;2.23;;
3627;SDS011;1830;49.000;12.074;2022-07-01T07:26:08;2.20;;;2.00;;
3627;SDS011;1830;49.000;12.074;2022-07-01T07:28:35;5.00;;;2.57;;
3627;SDS011;1830;49.000;12.074;2022-07-01T07:31:02;3.90;;;2.27;;
3627;SDS011;1830;49.000;12.074;2022-07-01T07:33:29;5.20;;;2.53;;
3627;SDS011;1830;49.000;12.074;2022-07-01T07:35:57;3.97;;;2.30;;
3627;SDS011;1830;49.000;12.074;2022-07-01T07:38:24;6.23;;;2.13;;
3627;SDS011;1830;49.000;12.074;2022-07-01T07:40:51;2.53;;;1.87;;
3627;SDS011;1830;49.000;12.074;2022-07-01T07:43:18;1.67;;;1.57;;
3627;SDS011;1830;49.000;12.074;2022-07-01T07:45:45;3.80;;;1.60;;
3627;SDS011;1830;49.000;12.074;2022-07-01T07:48:12;1.60;;;1.40;;
3627;SDS011;1830;49.000;12.074;2022-07-01T07:50:39;2.30;;;1.57;;
3627;SDS011;1830;49.000;12.074;2022-07-01T07:53:07;4.30;;;1.23;;
3627;SDS011;1830;49.000;12.074;2022-07-01T07:55:35;1.23;;;1.10;;
3627;SDS011;1830;49.000;12.074;2022-07-01T07:58:08;2.60;;;1.30;;
3627;SDS011;1830;49.000;12.074;2022-07-01T08:00:35;2.50;;;1.43;;
3627;SDS011;1830;49.000;12.074;2022-07-01T08:03:02;1.50;;;1.40;;
3627;SDS011;1830;49.000;12.074;2022-07-01T08:05:29;1.93;;;1.70;;
3627;SDS011;1830;49.000;12.074;2022-07-01T08:07:56;2.80;;;1.70;;
3627;SDS011;1830;49.000;12.074;2022-07-01T08:10:24;3.37;;;1.80;;
3627;SDS011;1830;49.000;12.074;2022-07-01T08:12:51;2.20;;;1.50;;
3627;SDS011;1830;49.000;12.074;2022-07-01T08:15:18;1.73;;;1.50;;
3627;SDS011;1830;49.000;12.074;2022-07-01T08:17:45;1.77;;;1.50;;
3627;SDS011;1830;49.000;12.074;2022-07-01T08:20:12;2.33;;;1.50;;
3627;SDS011;1830;49.000;12.074;2022-07-01T08:22:41;3.00;;;1.87;;
3627;SDS011;1830;49.000;12.074;2022-07-01T08:25:08;3.17;;;1.90;;
3627;SDS011;1830;49.000;12.074;2022-07-01T08:27:36;1.93;;;1.57;;
3627;SDS011;1830;49.000;12.074;2022-07-01T08:30:05;3.60;;;1.30;;
3627;SDS011;1830;49.000;12.074;2022-07-01T08:32:33;1.70;;;1.50;;
3627;SDS011;1830;49.000;12.074;2022-07-01T08:35:03;1.83;;;1.57;;
3627;SDS011;1830;49.000;12.074;2022-07-01T08:37:30;2.07;;;1.90;;
3627;SDS011;1830;49.000;12.074;2022-07-01T08:39:57;3.17;;;1.90;;
3627;SDS011;1830;49.000;12.074;2022-07-01T08:42:25;3.90;;;2.00;;
3627;SDS011;1830;49.000;12.074;2022-07-01T08:44:53;1.80;;;1.50;;
3627;SDS011;1830;49.000;12.074;2022-07-01T08:47:23;2.33;;;1.63;;
3627;SDS011;1830;49.000;12.074;2022-07-01T08:49:50;4.80;;;2.00;;
3627;SDS011;1830;49.000;12.074;2022-07-01T08:52:17;5.20;;;1.93;;
3627;SDS011;1830;49.000;12.074;2022-07-01T08:54:44;2.47;;;1.80;;
3627;SDS011;1830;49.000;12.074;2022-07-01T08:57:11;1.83;;;1.63;;
3627;SDS011;1830;49.000;12.074;2022-07-01T09:02:33;1.50;;;1.40;;
3627;SDS011;1830;49.000;12.074;2022-07-01T09:05:16;1.90;;;1.70;;
3627;SDS011;1830;49.000;12.074;2022-07-01T09:07:43;1.70;;;1.40;;
3627;SDS011;1830;49.000;12.074;2022-07-01T09:10:13;2.00;;;1.70;;
3627;SDS011;1830;49.000;12.074;2022-07-01T09:12:43;2.13;;;1.67;;
3627;SDS011;1830;49.000;12.074;2022-07-01T09:15:22;1.37;;;1.20;;
3627;SDS011;1830;49.000;12.074;2022-07-01T09:17:55;1.60;;;1.50;;
3627;SDS011;1830;49.000;12.074;2022-07-01T09:20:23;1.67;;;1.40;;
3627;SDS011;1830;49.000;12.074;2022-07-01T09:22:56;1.87;;;1.40;;
3627;SDS011;1830;49.000;12.074;2022-07-01T09:25:26;3.03;;;1.50;;
3627;SDS011;1830;49.000;12.074;2022-07-01T09:28:02;1.90;;;1.60;;
3627;SDS011;1830;49.000;12.074;2022-07-01T09:30:31;3.07;;;1.60;;
3627;SDS011;1830;49.000;12.074;2022-07-01T09:33:11;1.83;;;1.37;;
3627;SDS011;1830;49.000;12.074;2022-07-01T09:35:43;2.73;;;1.47;;
3627;SDS011;1830;49.000;12.074;2022-07-01T09:38:12;3.10;;;1.90;;
3627;SDS011;1830;49.000;12.074;2022-07-01T09:40:46;2.87;;;1.70;;
3627;SDS011;1830;49.000;12.074;2022-07-01T09:43:15;1.90;;;1.60;;
3627;SDS011;1830;49.000;12.074;2022-07-01T09:45:52;1.90;;;1.63;;
3627;SDS011;1830;49.000;12.074;2022-07-01T09:48:21;2.80;;;2.00;;
3627;SDS011;1830;49.000;12.074;2022-07-01T09:50:48;2.43;;;1.80;;
3627;SDS011;1830;49.000;12.074;2022-07-01T09:53:15;1.97;;;1.83;;
3627;SDS011;1830;49.000;12.074;2022-07-01T09:55:42;3.00;;;2.03;;
3627;SDS011;1830;49.000;12.074;2022-07-01T09:58:09;9.53;;;2.13;;
3627;SDS011;1830;49.000;12.074;2022-07-01T10:00:42;2.87;;;1.80;;
3627;SDS011;1830;49.000;12.074;2022-07-01T10:03:11;2.03;;;1.83;;
3627;SDS011;1830;49.000;12.074;2022-07-01T10:05:42;7.20;;;1.90;;
3627;SDS011;1830;49.000;12.074;2022-07-01T10:08:28;2.63;;;2.43;;
3627;SDS011;1830;49.000;12.074;2022-07-01T10:11:17;5.30;;;2.50;;
3627;SDS011;1830;49.000;12.074;2022-07-01T10:14:11;3.70;;;2.50;;
3627;SDS011;1830;49.000;12.074;2022-07-01T10:16:40;2.40;;;2.20;;
3627;SDS011;1830;49.000;12.074;2022-07-01T10:21:54;2.63;;;2.20;;
3627;SDS011;1830;49.000;12.074;2022-07-01T10:24:24;2.70;;;2.20;;
3627;SDS011;1830;49.000;12.074;2022-07-01T10:26:54;5.20;;;2.50;;
3627;SDS011;1830;49.000;12.074;2022-07-01T10:29:26;3.33;;;2.67;;
3627;SDS011;1830;49.000;12.074;2022-07-01T10:31:54;6.77;;;2.57;;
3627;SDS011;1830;49.000;12.074;2022-07-01T10:34:37;2.70;;;2.50;;
3627;SDS011;1830;49.000;12.074;2022-07-01T10:37:06;2.90;;;2.60;;
3627;SDS011;1830;49.000;12.074;2022-07-01T10:42:32;8.10;;;3.20;;
3627;SDS011;1830;49.000;12.074;2022-07-01T10:45:05;3.80;;;2.67;;
3627;SDS011;1830;49.000;12.074;2022-07-01T10:47:34;3.40;;;2.50;;
3627;SDS011;1830;49.000;12.074;2022-07-01T10:50:08;4.80;;;2.30;;
3627;SDS011;1830;49.000;12.074;2022-07-01T10:52:36;2.70;;;2.30;;
3627;SDS011;1830;49.000;12.074;2022-07-01T10:55:04;6.70;;;2.23;;
3627;SDS011;1830;49.000;12.074;2022-07-01T10:57:34;7.00;;;2.80;;
3627;SDS011;1830;49.000;12.074;2022-07-01T11:03:06;3.60;;;2.37;;
3627;SDS011;1830;49.000;12.074;2022-07-01T11:05:49;2.67;;;2.47;;
3627;SDS011;1830;49.000;12.074;2022-07-01T11:08:19;3.07;;;2.77;;
3627;SDS011;1830;49.000;12.074;2022-07-01T11:10:49;4.00;;;2.70;;
3627;SDS011;1830;49.000;12.074;2022-07-01T11:13:17;2.60;;;2.37;;
3627;SDS011;1830;49.000;12.074;2022-07-01T11:15:46;2.40;;;1.83;;
3627;SDS011;1830;49.000;12.074;2022-07-01T11:18:14;2.20;;;2.00;;
3627;SDS011;1830;49.000;12.074;2022-07-01T11:20:42;7.80;;;2.23;;
3627;SDS011;1830;49.000;12.074;2022-07-01T11:23:11;3.30;;;2.27;;
3627;SDS011;1830;49.000;12.074;2022-07-01T11:25:39;2.33;;;1.77;;
3627;SDS011;1830;49.000;12.074;2022-07-01T11:28:06;4.13;;;1.67;;
3627;SDS011;1830;49.000;12.074;2022-07-01T11:30:36;1.93;;;1.73;;
3627;SDS011;1830;49.000;12.074;2022-07-01T11:33:03;4.30;;;2.23;;
3627;SDS011;1830;49.000;12.074;2022-07-01T11:35:30;2.20;;;1.80;;
3627;SDS011;1830;49.000;12.074;2022-07-01T11:38:17;2.07;;;1.63;;
3627;SDS011;1830;49.000;12.074;2022-07-01T11:41:03;2.40;;;1.77;;
3627;SDS011;1830;49.000;12.074;2022-07-01T11:43:32;2.10;;;1.80;;
3627;SDS011;1830;49.000;12.074;2022-07-01T11:46:00;1.77;;;1.67;;
3627;SDS011;1830;49.000;12.074;2022-07-01T11:48:33;2.40;;;1.80;;
3627;SDS011;1830;49.000;12.074;2022-07-01T11:51:05;2.33;;;1.80;;
3627;SDS011;1830;49.000;12.074;2022-07-01T11:53:35;1.37;;;1.27;;
3627;SDS011;1830;49.000;12.074;2022-07-01T11:56:02;2.23;;;1.63;;
3627;SDS011;1830;49.000;12.074;2022-07-01T12:01:25;4.20;;;1.30;;
3627;SDS011;1830;49.000;12.074;2022-07-01T12:03:54;1.60;;;1.13;;
3627;SDS011;1830;49.000;12.074;2022-07-01T12:06:22;3.20;;;1.37;;
3627;SDS011;1830;49.000;12.074;2022-07-01T12:08:51;1.30;;;1.17;;
3627;SDS011;1830;49.000;12.074;2022-07-01T12:11:21;3.73;;;1.20;;
3627;SDS011;1830;49.000;12.074;2022-07-01T12:13:50;2.20;;;1.13;;
3627;SDS011;1830;49.000;12.074;2022-07-01T12:16:18;3.97;;;1.47;;
3627;SDS011;1830;49.000;12.074;2022-07-01T12:18:52;3.50;;;1.10;;
3627;SDS011;1830;49.000;12.074;2022-07-01T12:21:21;1.20;;;1.00;;
3627;SDS011;1830;49.000;12.074;2022-07-01T12:26:33;1.93;;;1.20;;
3627;SDS011;1830;49.000;12.074;2022-07-01T12:29:00;1.30;;;1.20;;
3627;SDS011;1830;49.000;12.074;2022-07-01T12:31:27;1.20;;;1.10;;
3627;SDS011;1830;49.000;12.074;2022-07-01T12:33:54;2.03;;;1.30;;
3627;SDS011;1830;49.000;12.074;2022-07-01T12:36:21;1.33;;;1.23;;
3627;SDS011;1830;49.000;12.074;2022-07-01T12:38:59;1.53;;;1.10;;
3627;SDS011;1830;49.000;12.074;2022-07-01T12:41:29;2.80;;;1.63;;
3627;SDS011;1830;49.000;12.074;2022-07-01T12:43:58;1.20;;;1.10;;
3627;SDS011;1830;49.000;12.074;2022-07-01T12:46:28;2.93;;;1.37;;
3627;SDS011;1830;49.000;12.074;2022-07-01T12:48:56;2.57;;;1.70;;
3627;SDS011;1830;49.000;12.074;2022-07-01T12:51:30;3.70;;;1.70;;
3627;SDS011;1830;49.000;12.074;2022-07-01T12:53:57;1.60;;;1.33;;
3627;SDS011;1830;49.000;12.074;2022-07-01T12:56:26;3.00;;;1.50;;
3627;SDS011;1830;49.000;12.074;2022-07-01T12:58:55;1.90;;;1.27;;
3627;SDS011;1830;49.000;12.074;2022-07-01T13:01:23;1.77;;;1.40;;
3627;SDS011;1830;49.000;12.074;2022-07-01T13:03:50;3.83;;;1.50;;
3627;SDS011;1830;49.000;12.074;2022-07-01T13:06:17;6.30;;;1.67;;
3627;SDS011;1830;49.000;12.074;2022-07-01T13:08:44;4.37;;;1.60;;
3627;SDS011;1830;49.000;12.074;2022-07-01T13:11:10;1.60;;;1.40;;
3627;SDS011;1830;49.000;12.074;2022-07-01T13:13:37;3.40;;;1.40;;
3627;SDS011;1830;49.000;12.074;2022-07-01T13:16:06;2.20;;;1.70;;
3627;SDS011;1830;49.000;12.074;2022-07-01T13:18:32;1.87;;;1.70;;
3627;SDS011;1830;49.000;12.074;2022-07-01T13:20:59;2.60;;;1.30;;
3627;SDS011;1830;49.000;12.074;2022-07-01T13:23:26;1.70;;;1.60;;
3627;SDS011;1830;49.000;12.074;2022-07-01T13:25:53;3.67;;;1.63;;
3627;SDS011;1830;49.000;12.074;2022-07-01T13:28:20;1.50;;;1.40;;
3627;SDS011;1830;49.000;12.074;2022-07-01T13:30:46;1.50;;;1.40;;
3627;SDS011;1830;49.000;12.074;2022-07-01T13:33:15;2.30;;;1.80;;
3627;SDS011;1830;49.000;12.074;2022-07-01T13:35:42;2.40;;;1.80;;
3627;SDS011;1830;49.000;12.074;2022-07-01T13:38:08;8.20;;;1.53;;
3627;SDS011;1830;49.000;12.074;2022-07-01T13:40:35;2.67;;;1.90;;
3627;SDS011;1830;49.000;12.074;2022-07-01T13:43:02;4.23;;;2.00;;
3627;SDS011;1830;49.000;12.074;2022-07-01T13:45:29;2.93;;;1.57;;
3627;SDS011;1830;49.000;12.074;2022-07-01T13:47:55;1.83;;;1.70;;
3627;SDS011;1830;49.000;12.074;2022-07-01T13:50:24;2.47;;;1.40;;
3627;SDS011;1830;49.000;12.074;2022-07-01T13:52:50;3.43;;;1.40;;
3627;SDS011;1830;49.000;12.074;2022-07-01T13:55:17;1.83;;;1.30;;
3627;SDS011;1830;49.000;12.074;2022-07-01T13:57:44;2.13;;;1.70;;
3627;SDS011;1830;49.000;12.074;2022-07-01T14:00:12;3.03;;;1.70;;
3627;SDS011;1830;49.000;12.074;2022-07-01T14:02:39;1.93;;;1.60;;
3627;SDS011;1830;49.000;12.074;2022-07-01T14:05:07;2.97;;;1.63;;
3627;SDS011;1830;49.000;12.074;2022-07-01T14:07:35;1.77;;;1.60;;
3627;SDS011;1830;49.000;12.074;2022-07-01T14:10:02;3.63;;;1.77;;
3627;SDS011;1830;49.000;12.074;2022-07-01T14:12:30;3.40;;;2.07;;
3627;SDS011;1830;49.000;12.074;2022-07-01T14:14:56;1.90;;;1.63;;
3627;SDS011;1830;49.000;12.074;2022-07-01T14:17:23;1.50;;;1.40;;
3627;SDS011;1830;49.000;12.074;2022-07-01T14:19:51;4.17;;;1.60;;
3627;SDS011;1830;49.000;12.074;2022-07-01T14:22:18;1.73;;;1.57;;
3627;SDS011;1830;49.000;12.074;2022-07-01T14:24:46;2.17;;;1.97;;
3627;SDS011;1830;49.000;12.074;2022-07-01T14:27:13;2.90;;;1.43;;
3627;SDS011;1830;49.000;12.074;2022-07-01T14:29:39;3.53;;;1.73;;
3627;SDS011;1830;49.000;12.074;2022-07-01T14:32:07;1.70;;;1.50;;
3627;SDS011;1830;49.000;12.074;2022-07-01T14:34:34;3.97;;;1.70;;
3627;SDS011;1830;49.000;12.074;2022-07-01T14:37:01;1.80;;;1.40;;
3627;SDS011;1830;49.000;12.074;2022-07-01T14:39:27;4.80;;;1.77;;
3627;SDS011;1830;49.000;12.074;2022-07-01T14:41:56;3.27;;;1.70;;
3627;SDS011;1830;49.000;12.074;2022-07-01T14:44:23;2.53;;;1.30;;
3627;SDS011;1830;49.000;12.074;2022-07-01T14:46:50;2.60;;;1.80;;
3627;SDS011;1830;49.000;12.074;2022-07-01T14:49:17;5.37;;;1.87;;
3627;SDS011;1830;49.000;12.074;2022-07-01T14:51:43;2.30;;;1.60;;
3627;SDS011;1830;49.000;12.074;2022-07-01T14:54:10;1.87;;;1.50;;
3627;SDS011;1830;49.000;12.074;2022-07-01T14:56:37;3.33;;;1.77;;
3627;SDS011;1830;49.000;12.074;2022-07-01T14:59:05;5.63;;;4.50;;
3627;SDS011;1830;49.000;12.074;2022-07-01T15:01:33;3.10;;;2.07;;
3627;SDS011;1830;49.000;12.074;2022-07-01T15:04:01;4.10;;;1.90;;
3627;SDS011;1830;49.000;12.074;2022-07-01T15:06:28;2.43;;;1.50;;
3627;SDS011;1830;49.000;12.074;2022-07-01T15:08:54;3.70;;;2.30;;
3627;SDS011;1830;49.000;12.074;2022-07-01T15:11:21;1.63;;;1.50;;
3627;SDS011;1830;49.000;12.074;2022-07-01T15:13:48;1.87;;;1.60;;
3627;SDS011;1830;49.000;12.074;2022-07-01T15:16:16;2.80;;;1.90;;
3627;SDS011;1830;49.000;12.074;2022-07-01T15:18:43;3.03;;;2.07;;
3627;SDS011;1830;49.000;12.074;2022-07-01T15:21:10;3.80;;;2.00;;
3627;SDS011;1830;49.000;12.074;2022-07-01T15:23:36;4.27;;;2.10;;